createdAt,value
2023-10-29T00:01:17.448Z,1006.1
2023-10-29T00:03:01.061Z,1004.5
2023-10-29T00:04:44.756Z,1004.4
2023-10-29T00:06:28.476Z,1002.2
2023-10-29T00:08:12.179Z,998.6
2023-10-29T00:09:55.878Z,992.5
2023-10-29T00:11:39.606Z,987.4
2023-10-29T00:13:23.271Z,981.6
2023-10-29T00:15:06.990Z,983.1
2023-10-29T00:16:50.771Z,983.2
2023-10-29T00:18:34.387Z,981.8
2023-10-29T00:20:18.155Z,981.6
2023-10-29T00:22:01.788Z,983.1
2023-10-29T00:23:45.476Z,983.3
2023-10-29T00:25:29.197Z,978.4
2023-10-29T00:27:12.918Z,975.2
2023-10-29T00:28:56.597Z,972
2023-10-29T00:30:40.273Z,971.4
2023-10-29T00:32:23.974Z,971.1
2023-10-29T00:34:07.685Z,970.8
2023-10-29T00:37:35.084Z,965.7
2023-10-29T00:39:18.773Z,963.8
2023-10-29T00:41:02.482Z,960.3
2023-10-29T00:42:46.213Z,957
2023-10-29T00:44:29.891Z,956.4
2023-10-29T00:46:13.583Z,951.4
2023-10-29T00:47:57.296Z,949.3
2023-10-29T00:49:40.984Z,948.5
2023-10-29T00:51:24.689Z,949.9
2023-10-29T00:53:08.394Z,949.3
2023-10-29T00:54:52.093Z,950.3
2023-10-29T00:56:35.807Z,947.9
2023-10-29T00:58:19.479Z,946.6
2023-10-29T01:00:03.192Z,945.3
2023-10-29T01:01:46.894Z,945.7
2023-10-29T01:03:30.614Z,947.4
2023-10-29T01:05:14.292Z,946.6
2023-10-29T01:06:58.004Z,941.4
2023-10-29T01:08:41.716Z,940.2
2023-10-29T01:10:25.459Z,938.6
2023-10-29T01:12:09.113Z,938.6
2023-10-29T01:13:52.817Z,934.6
2023-10-29T01:15:36.513Z,933.3
2023-10-29T01:17:20.219Z,928.9
2023-10-29T01:19:03.923Z,928
2023-10-29T01:20:47.623Z,928.7
2023-10-29T01:22:31.335Z,931.5
2023-10-29T01:24:15.019Z,929.9
2023-10-29T01:25:58.713Z,930.4
2023-10-29T01:27:42.410Z,926.1
2023-10-29T01:29:26.139Z,924.2
2023-10-29T01:31:09.840Z,921.7
2023-10-29T01:32:53.537Z,923.5
2023-10-29T01:34:37.234Z,924.3
2023-10-29T01:36:20.942Z,918.9
2023-10-29T01:38:04.659Z,916.4
2023-10-29T01:39:48.339Z,913.1
2023-10-29T01:41:32.055Z,913.3
2023-10-29T01:43:15.758Z,909.2
2023-10-29T01:44:59.469Z,905.5
2023-10-29T01:46:43.152Z,905.4
2023-10-29T01:48:26.891Z,905.9
2023-10-29T01:50:10.558Z,906.8
2023-10-29T01:51:54.258Z,903.4
2023-10-29T01:53:37.959Z,898.9
2023-10-29T01:55:21.642Z,897.6
2023-10-29T01:57:05.354Z,897.8
2023-10-29T01:58:49.073Z,895.9
2023-10-29T02:00:32.749Z,893.8
2023-10-29T02:02:16.487Z,891.3
2023-10-29T02:04:00.150Z,886.8
2023-10-29T02:05:43.861Z,884.9
2023-10-29T02:07:27.569Z,884.2
2023-10-29T02:09:11.257Z,884.4
2023-10-29T02:10:54.966Z,884.2
2023-10-29T02:12:38.674Z,883.6
2023-10-29T02:14:22.363Z,883.1
2023-10-29T02:16:06.083Z,878.1
2023-10-29T02:17:49.785Z,877.5
2023-10-29T02:19:33.476Z,876.2
2023-10-29T02:21:17.178Z,877.2
2023-10-29T02:23:00.891Z,875.5
2023-10-29T02:24:44.581Z,874.5
2023-10-29T02:26:28.275Z,872.5
2023-10-29T02:28:11.988Z,870.1
2023-10-29T02:29:55.698Z,868.5
2023-10-29T02:31:39.396Z,866.5
2023-10-29T02:33:23.090Z,866.5
2023-10-29T02:35:06.805Z,864.2
2023-10-29T02:36:50.500Z,860
2023-10-29T02:38:34.211Z,859.2
2023-10-29T02:40:17.908Z,854
2023-10-29T02:42:01.613Z,853.8
2023-10-29T02:43:45.333Z,854.2
2023-10-29T02:45:29.007Z,853.8
2023-10-29T02:47:12.728Z,853.6
2023-10-29T02:48:56.424Z,850.8
2023-10-29T02:50:40.119Z,850.6
2023-10-29T02:52:23.811Z,848.8
2023-10-29T02:54:07.536Z,845.7
2023-10-29T02:55:51.224Z,844
2023-10-29T02:57:34.928Z,842.7
2023-10-29T02:59:18.664Z,840.6
2023-10-29T03:01:02.340Z,840.4
2023-10-29T03:02:46.041Z,839.3
2023-10-29T03:04:29.733Z,839.2
2023-10-29T03:06:13.434Z,840.1
2023-10-29T03:07:57.137Z,841.7
2023-10-29T03:09:40.836Z,838
2023-10-29T03:11:24.544Z,834.5
2023-10-29T03:13:08.249Z,832.6
2023-10-29T03:14:51.952Z,834.2
2023-10-29T03:16:35.675Z,833.8
2023-10-29T03:18:19.424Z,833.3
2023-10-29T03:20:03.059Z,834.7
2023-10-29T03:21:46.831Z,833.8
2023-10-29T03:23:30.479Z,832.5
2023-10-29T03:25:14.173Z,831.3
2023-10-29T03:26:57.928Z,828.4
2023-10-29T03:28:41.603Z,826.2
2023-10-29T03:30:25.303Z,825.5
2023-10-29T03:32:08.986Z,827.3
2023-10-29T03:33:52.694Z,823.6
2023-10-29T03:35:36.417Z,820.1
2023-10-29T03:37:20.111Z,820.2
2023-10-29T03:39:03.806Z,819.2
2023-10-29T03:40:47.521Z,817
2023-10-29T03:42:31.215Z,816
2023-10-29T03:44:14.944Z,814.4
2023-10-29T03:45:58.609Z,811.8
2023-10-29T03:47:42.337Z,813.7
2023-10-29T03:49:26.029Z,812.3
2023-10-29T03:51:09.722Z,808.8
2023-10-29T03:52:53.417Z,806.5
2023-10-29T03:54:37.133Z,804.6
2023-10-29T03:56:20.838Z,805
2023-10-29T03:58:04.552Z,805.5
2023-10-29T03:59:48.253Z,806.6
2023-10-29T04:01:31.952Z,803.5
2023-10-29T04:03:15.663Z,801.8
2023-10-29T04:04:59.389Z,798.3
2023-10-29T04:06:43.108Z,793.9
2023-10-29T04:08:26.814Z,791
2023-10-29T04:10:10.470Z,793
2023-10-29T04:11:54.176Z,792.2
2023-10-29T04:13:37.872Z,794.4
2023-10-29T04:15:21.802Z,792.7
2023-10-29T04:17:05.274Z,790.6
2023-10-29T04:18:48.979Z,790.3
2023-10-29T04:20:32.722Z,792.5
2023-10-29T04:22:16.380Z,793
2023-10-29T04:24:00.221Z,790.8
2023-10-29T04:25:43.797Z,788.3
2023-10-29T04:27:27.475Z,785.3
2023-10-29T04:29:11.195Z,785.3
2023-10-29T04:30:54.893Z,781.7
2023-10-29T04:32:38.633Z,782
2023-10-29T04:34:22.305Z,781.2
2023-10-29T04:36:06.006Z,781.2
2023-10-29T04:37:49.695Z,779.9
2023-10-29T04:39:33.427Z,783.9
2023-10-29T04:41:17.113Z,783.1
2023-10-29T04:43:00.832Z,782.6
2023-10-29T04:44:44.632Z,782.3
2023-10-29T04:46:28.287Z,781.3
2023-10-29T04:48:11.946Z,778.2
2023-10-29T04:49:55.631Z,772.9
2023-10-29T04:51:39.333Z,770.2
2023-10-29T04:53:23.045Z,768.7
2023-10-29T04:55:06.735Z,769
2023-10-29T04:56:50.438Z,769.9
2023-10-29T04:58:34.131Z,769.8
2023-10-29T05:00:17.892Z,769.6
2023-10-29T05:02:01.564Z,770.9
2023-10-29T05:03:45.223Z,766.9
2023-10-29T05:05:28.940Z,764.9
2023-10-29T05:07:12.638Z,769.1
2023-10-29T05:08:56.361Z,769.9
2023-10-29T05:10:40.051Z,771.5
2023-10-29T05:12:23.777Z,768.9
2023-10-29T05:14:07.449Z,770
2023-10-29T05:15:51.149Z,767.9
2023-10-29T05:17:34.833Z,769.5
2023-10-29T05:19:18.546Z,768.9
2023-10-29T05:21:02.257Z,771.3
2023-10-29T05:22:45.964Z,772.2
2023-10-29T05:24:29.650Z,774.2
2023-10-29T05:26:13.363Z,774.1
2023-10-29T05:27:57.070Z,772.5
2023-10-29T05:29:40.769Z,768.3
2023-10-29T05:31:24.545Z,765.3
2023-10-29T05:33:08.172Z,766
2023-10-29T05:34:51.878Z,767.9
2023-10-29T05:36:35.575Z,765.3
2023-10-29T05:38:19.292Z,763.4
2023-10-29T05:40:02.985Z,762
2023-10-29T05:41:46.674Z,761.6
2023-10-29T05:43:30.399Z,758.2
2023-10-29T05:45:14.086Z,758.6
2023-10-29T05:46:57.772Z,759.6
2023-10-29T05:48:41.491Z,762.3
2023-10-29T05:50:25.209Z,761.3
2023-10-29T05:52:08.901Z,759
2023-10-29T05:53:52.568Z,757.3
2023-10-29T05:55:36.278Z,758.1
2023-10-29T05:57:20.033Z,756.5
2023-10-29T05:59:03.710Z,754.9
2023-10-29T06:00:47.402Z,756.5
2023-10-29T06:02:31.103Z,755.2
2023-10-29T06:04:14.793Z,752.8
2023-10-29T06:05:58.512Z,747.7
2023-10-29T06:07:42.191Z,749.2
2023-10-29T06:09:25.916Z,750.8
2023-10-29T06:12:53.330Z,752.4
2023-10-29T06:14:37.005Z,755
2023-10-29T06:16:20.752Z,750.4
2023-10-29T06:18:04.439Z,748.6
2023-10-29T06:19:48.115Z,748.5
2023-10-29T06:21:31.843Z,744.5
2023-10-29T06:23:15.540Z,740.5
2023-10-29T06:24:59.247Z,738.5
2023-10-29T06:26:42.954Z,736.8
2023-10-29T06:28:26.716Z,734.3
2023-10-29T06:30:10.333Z,735.6
2023-10-29T06:31:54.047Z,732.7
2023-10-29T06:33:37.758Z,730.8
2023-10-29T06:35:21.458Z,731.9
2023-10-29T06:37:05.170Z,732.6
2023-10-29T06:38:48.866Z,730.3
2023-10-29T06:40:32.578Z,732.4
2023-10-29T06:42:16.268Z,734.4
2023-10-29T06:43:59.949Z,738
2023-10-29T06:45:43.658Z,740
2023-10-29T06:47:27.384Z,740.5
2023-10-29T06:49:11.062Z,736.5
2023-10-29T06:50:54.768Z,732.6
2023-10-29T06:52:38.489Z,731.5
2023-10-29T06:56:05.873Z,726.4
2023-10-29T06:57:49.589Z,726.9
2023-10-29T06:59:33.344Z,725.4
2023-10-29T07:01:16.974Z,723.3
2023-10-29T07:03:00.835Z,721.9
2023-10-29T07:04:44.356Z,721
2023-10-29T07:06:28.097Z,719.6
2023-10-29T07:08:11.773Z,718.5
2023-10-29T07:09:55.508Z,720.4
2023-10-29T07:11:39.172Z,721.7
2023-10-29T07:13:22.869Z,721.6
2023-10-29T07:15:06.593Z,722.3
2023-10-29T07:16:50.332Z,723.4
2023-10-29T07:18:33.977Z,722
2023-10-29T07:20:17.699Z,718.4
2023-10-29T07:22:01.394Z,718.7
2023-10-29T07:23:45.091Z,718.6
2023-10-29T07:25:28.771Z,715.1
2023-10-29T07:27:12.486Z,718.2
2023-10-29T07:28:56.198Z,715.6
2023-10-29T07:30:39.894Z,712.9
2023-10-29T07:32:23.593Z,711.2
2023-10-29T07:34:07.290Z,713.8
2023-10-29T07:35:51.005Z,721.2
2023-10-29T07:37:34.718Z,731
2023-10-29T07:39:18.461Z,737.3
2023-10-29T07:41:02.119Z,740.5
2023-10-29T07:42:45.860Z,742.8
2023-10-29T07:44:29.522Z,741.1
2023-10-29T07:46:13.230Z,741.6
2023-10-29T07:47:56.918Z,742.9
2023-10-29T07:49:40.618Z,744
2023-10-29T07:51:24.327Z,745.4
2023-10-29T07:53:08.024Z,744.5
2023-10-29T07:54:51.714Z,745.2
2023-10-29T07:56:35.429Z,745.9
2023-10-29T07:58:19.141Z,744.7
2023-10-29T08:00:02.848Z,742.7
2023-10-29T08:01:46.544Z,743.7
2023-10-29T08:03:30.230Z,745.8
2023-10-29T08:05:14.015Z,745.3
2023-10-29T08:06:57.767Z,745.7
2023-10-29T08:08:41.320Z,747.4
2023-10-29T08:10:25.030Z,746.5
2023-10-29T08:12:08.728Z,749.3
2023-10-29T08:13:52.516Z,751.2
2023-10-29T08:15:36.230Z,754.1
2023-10-29T08:17:19.832Z,754.6
2023-10-29T08:19:03.542Z,756.9
2023-10-29T08:20:47.230Z,756.8
2023-10-29T08:22:31.033Z,751.3
2023-10-29T08:24:14.649Z,753.5
2023-10-29T08:25:58.351Z,752.6
2023-10-29T08:27:42.062Z,750.3
2023-10-29T08:29:25.747Z,749
2023-10-29T08:31:09.441Z,744.6
2023-10-29T08:32:53.174Z,745.4
2023-10-29T08:34:36.878Z,746.2
2023-10-29T08:36:20.605Z,742.2
2023-10-29T08:38:04.260Z,741.8
2023-10-29T08:39:47.959Z,737.6
2023-10-29T08:41:31.723Z,736.7
2023-10-29T08:43:15.359Z,733
2023-10-29T08:44:59.070Z,732.1
2023-10-29T08:46:42.779Z,732.5
2023-10-29T08:48:26.489Z,736.4
2023-10-29T08:50:10.174Z,737.8
2023-10-29T08:51:53.874Z,735.8
2023-10-29T08:53:37.583Z,737.6
2023-10-29T08:55:21.289Z,740
2023-10-29T08:57:04.999Z,735.4
2023-10-29T08:58:48.711Z,730.6
2023-10-29T09:00:32.412Z,726.6
2023-10-29T09:02:16.153Z,727.7
2023-10-29T09:03:59.817Z,730.9
2023-10-29T09:05:43.514Z,734.2
2023-10-29T09:07:27.226Z,731
2023-10-29T09:09:10.944Z,727.8
2023-10-29T09:10:54.665Z,728.3
2023-10-29T09:12:38.329Z,728
2023-10-29T09:14:22.035Z,729.9
2023-10-29T09:16:05.745Z,727.9
2023-10-29T09:17:49.438Z,728.1
2023-10-29T09:19:33.151Z,728.9
2023-10-29T09:21:16.859Z,727.6
2023-10-29T09:23:00.633Z,725.9
2023-10-29T09:24:44.255Z,727.3
2023-10-29T09:26:27.959Z,727.3
2023-10-29T09:28:11.676Z,726.8
2023-10-29T09:29:55.431Z,727
2023-10-29T09:31:39.057Z,730.4
2023-10-29T09:33:22.791Z,730.4
2023-10-29T09:35:06.481Z,726.1
2023-10-29T09:36:50.185Z,725.3
2023-10-29T09:38:33.943Z,723.2
2023-10-29T09:40:17.565Z,724.8
2023-10-29T09:42:01.287Z,725.3
2023-10-29T09:43:45.049Z,724.6
2023-10-29T09:45:28.687Z,724.5
2023-10-29T09:47:12.391Z,724
2023-10-29T09:48:56.095Z,721.3
2023-10-29T09:50:39.820Z,722.3
2023-10-29T09:52:23.503Z,722
2023-10-29T09:54:07.222Z,720.9
2023-10-29T09:55:50.945Z,719.7
2023-10-29T09:57:34.614Z,718.4
2023-10-29T09:59:18.361Z,718.6
2023-10-29T10:01:02.031Z,718.4
2023-10-29T10:02:45.728Z,716.7
2023-10-29T10:04:29.449Z,716
2023-10-29T10:06:13.142Z,718
2023-10-29T10:07:56.840Z,719
2023-10-29T10:09:40.547Z,719.7
2023-10-29T10:11:24.250Z,721.3
2023-10-29T10:13:07.963Z,720.9
2023-10-29T10:14:51.656Z,720
2023-10-29T10:16:35.353Z,720.6
2023-10-29T10:18:19.039Z,721.4
2023-10-29T10:20:02.773Z,719.7
2023-10-29T10:21:46.435Z,719.1
2023-10-29T10:23:30.149Z,721.1
2023-10-29T10:25:13.857Z,723
2023-10-29T10:26:57.574Z,727.6
2023-10-29T10:28:41.253Z,729.9
2023-10-29T10:30:24.973Z,730
2023-10-29T10:32:08.645Z,734.9
2023-10-29T10:33:52.358Z,740.9
2023-10-29T10:35:36.057Z,745.6
2023-10-29T10:37:19.756Z,746.6
2023-10-29T10:39:03.471Z,752.3
2023-10-29T10:40:47.166Z,756.5
2023-10-29T10:42:30.861Z,758.5
2023-10-29T10:44:14.575Z,763.3
2023-10-29T10:45:58.276Z,768.4
2023-10-29T10:47:41.983Z,772.1
2023-10-29T10:49:25.667Z,778.7
2023-10-29T10:51:09.420Z,782.5
2023-10-29T10:52:53.071Z,783.2
2023-10-29T10:54:36.780Z,786
2023-10-29T10:56:20.473Z,789
2023-10-29T10:58:04.182Z,786.4
2023-10-29T10:59:47.881Z,785.2
2023-10-29T11:01:31.784Z,788.8
2023-10-29T11:03:15.269Z,793.7
2023-10-29T11:04:59.016Z,794.9
2023-10-29T11:06:42.687Z,793.3
2023-10-29T11:08:26.402Z,792.5
2023-10-29T11:10:10.202Z,791.2
2023-10-29T11:11:53.805Z,793.6
2023-10-29T11:13:37.557Z,796.1
2023-10-29T11:15:21.205Z,801.7
2023-10-29T11:17:04.910Z,803.8
2023-10-29T11:18:48.627Z,815
2023-10-29T11:20:32.337Z,831
2023-10-29T11:22:16.224Z,857.4
2023-10-29T11:23:59.749Z,913.4
2023-10-29T11:25:43.456Z,941.1
2023-10-29T11:27:27.204Z,953.6
2023-10-29T11:29:10.861Z,953.4
2023-10-29T11:30:54.560Z,926.5
2023-10-29T11:32:38.258Z,921
2023-10-29T11:34:21.982Z,944.1
2023-10-29T11:36:05.669Z,973.8
2023-10-29T11:37:49.407Z,987.5
2023-10-29T11:39:33.067Z,994.7
2023-10-29T11:41:16.789Z,986.1
2023-10-29T11:43:00.532Z,989.5
2023-10-29T11:44:44.189Z,994.3
2023-10-29T11:46:27.917Z,992.4
2023-10-29T11:48:11.597Z,985.7
2023-10-29T11:49:55.315Z,973.3
2023-10-29T11:51:39.011Z,960.7
2023-10-29T11:53:22.701Z,953.3
2023-10-29T11:55:06.407Z,946.5
2023-10-29T11:56:50.106Z,946
2023-10-29T11:58:33.817Z,944.8
2023-10-29T12:00:17.535Z,947
2023-10-29T12:02:01.210Z,949.7
2023-10-29T12:03:44.919Z,953.8
2023-10-29T12:05:28.641Z,959.4
2023-10-29T12:07:12.361Z,961.5
2023-10-29T12:08:56.051Z,966.7
2023-10-29T12:10:39.777Z,974.2
2023-10-29T12:12:23.580Z,980
2023-10-29T12:14:07.238Z,978.8
2023-10-29T12:15:50.976Z,982.9
2023-10-29T12:17:34.876Z,985
2023-10-29T12:19:18.247Z,985.1
2023-10-29T12:21:01.959Z,982.1
2023-10-29T12:22:45.666Z,981.1
2023-10-29T12:24:29.415Z,979.7
2023-10-29T12:26:13.071Z,978.5
2023-10-29T12:27:56.762Z,979.5
2023-10-29T12:29:40.469Z,978.8
2023-10-29T12:31:24.308Z,977
2023-10-29T12:33:07.884Z,977.2
2023-10-29T12:34:51.581Z,977.9
2023-10-29T12:36:35.265Z,978.4
2023-10-29T12:38:18.970Z,978.5
2023-10-29T12:40:02.675Z,976.7
2023-10-29T12:41:46.566Z,976.7
2023-10-29T12:43:30.086Z,978
2023-10-29T12:45:13.780Z,978.5
2023-10-29T12:46:57.480Z,982
2023-10-29T12:48:41.169Z,994.1
2023-10-29T12:50:24.866Z,995.4
2023-10-29T12:52:08.567Z,998.3
2023-10-29T12:53:52.292Z,1000.3
2023-10-29T12:55:35.956Z,1005.9
2023-10-29T12:57:19.680Z,1011
2023-10-29T12:59:03.370Z,1017.4
2023-10-29T13:00:47.080Z,1019.4
2023-10-29T13:02:30.768Z,1022.7
2023-10-29T13:04:14.468Z,1028.8
2023-10-29T13:05:58.186Z,1032.3
2023-10-29T13:07:41.906Z,1037.9
2023-10-29T13:09:25.594Z,1038.1
2023-10-29T13:11:09.288Z,1040.7
2023-10-29T13:12:52.976Z,1043.5
2023-10-29T13:14:36.678Z,1048.7
2023-10-29T13:16:20.398Z,1050.8
2023-10-29T13:18:04.076Z,1056.4
2023-10-29T13:19:47.784Z,1064.7
2023-10-29T13:21:31.498Z,1071.8
2023-10-29T13:23:15.194Z,1072.2
2023-10-29T13:24:58.912Z,1079.6
2023-10-29T13:26:42.604Z,1084.4
2023-10-29T13:28:26.324Z,1088.7
2023-10-29T13:30:10.002Z,1092.1
2023-10-29T13:31:53.704Z,1098.8
2023-10-29T13:33:37.407Z,1101.9
2023-10-29T13:35:21.117Z,1109.7
2023-10-29T13:37:04.800Z,1110.6
2023-10-29T13:38:48.522Z,1111.1
2023-10-29T13:40:32.203Z,1114.4
2023-10-29T13:42:15.947Z,1121.6
2023-10-29T13:43:59.611Z,1126.4
2023-10-29T13:45:43.372Z,1126.2
2023-10-29T13:47:27.002Z,1124.7
2023-10-29T13:49:10.723Z,1122.3
2023-10-29T13:50:54.410Z,1120.9
2023-10-29T13:52:38.100Z,1122.9
2023-10-29T13:54:21.815Z,1124.6
2023-10-29T13:56:05.535Z,1122.7
2023-10-29T13:59:33.015Z,1124.1
2023-10-29T14:01:16.635Z,1128
2023-10-29T14:03:00.353Z,1135
2023-10-29T14:04:44.028Z,1142
2023-10-29T14:06:27.730Z,1141.3
2023-10-29T14:08:11.467Z,1140.4
2023-10-29T14:09:55.159Z,1139.7
2023-10-29T14:11:38.846Z,1136.4
2023-10-29T14:13:22.534Z,1139.9
2023-10-29T14:15:06.259Z,1150.5
2023-10-29T14:16:49.961Z,1149.8
2023-10-29T14:18:33.650Z,1148.2
2023-10-29T14:20:17.353Z,1146.7
2023-10-29T14:22:01.056Z,1144.1
2023-10-29T14:23:44.904Z,1138.9
2023-10-29T14:25:28.461Z,1139
2023-10-29T14:27:12.167Z,1136.6
2023-10-29T14:28:55.855Z,1134.5
2023-10-29T14:30:39.558Z,1134
2023-10-29T14:32:23.260Z,1136
2023-10-29T14:34:06.961Z,1138.7
2023-10-29T14:35:50.674Z,1142.4
2023-10-29T14:37:34.379Z,1143.5
2023-10-29T14:39:18.099Z,1144
2023-10-29T14:41:01.779Z,1150.4
2023-10-29T14:42:45.493Z,1159.2
2023-10-29T14:44:29.201Z,1171.7
2023-10-29T14:46:12.899Z,1181.2
2023-10-29T14:47:56.617Z,1188.3
2023-10-29T14:49:40.311Z,1196.1
2023-10-29T14:51:24.009Z,1201.6
2023-10-29T14:53:07.719Z,1208.1
2023-10-29T14:54:51.424Z,1217.6
2023-10-29T14:56:35.131Z,1219.7
2023-10-29T14:58:18.824Z,1222.6
2023-10-29T15:00:18.350Z,1225.8
2023-10-29T15:01:46.231Z,1224.4
2023-10-29T15:03:29.947Z,1220.5
2023-10-29T15:05:13.649Z,1215.9
2023-10-29T15:06:57.352Z,1216.7
2023-10-29T15:08:41.052Z,1216.9
2023-10-29T15:10:24.753Z,1215.7
2023-10-29T15:12:08.469Z,1216.9
2023-10-29T15:13:52.176Z,1219.2
2023-10-29T15:15:35.862Z,1221.1
2023-10-29T15:17:19.583Z,1221.6
2023-10-29T15:19:03.292Z,1223.6
2023-10-29T15:20:46.987Z,1224.9
2023-10-29T15:22:30.680Z,1224.3
2023-10-29T15:24:14.387Z,1223.1
2023-10-29T15:25:58.099Z,1226
2023-10-29T15:27:41.800Z,1228.7
2023-10-29T15:29:25.488Z,1231.8
2023-10-29T15:31:09.208Z,1239.4
2023-10-29T15:32:52.913Z,1243.7
2023-10-29T15:34:36.608Z,1246.5
2023-10-29T15:36:20.304Z,1251.2
2023-10-29T15:38:04.013Z,1249.8
2023-10-29T15:39:47.712Z,1248.6
2023-10-29T15:41:31.420Z,1247.5
2023-10-29T15:43:15.131Z,1242.8
2023-10-29T15:44:58.821Z,1239.8
2023-10-29T15:46:42.536Z,1239.9
2023-10-29T15:48:26.252Z,1240.7
2023-10-29T15:50:09.943Z,1237.6
2023-10-29T15:51:53.655Z,1234.2
2023-10-29T15:53:37.357Z,1234.7
2023-10-29T15:55:21.077Z,1238.6
2023-10-29T15:57:04.766Z,1237.8
2023-10-29T15:58:48.590Z,1231.7
2023-10-29T16:00:32.255Z,1233.8
2023-10-29T16:02:15.919Z,1233.2
2023-10-29T16:03:59.595Z,950
2023-10-29T16:05:43.270Z,780.7
2023-10-29T16:07:27.010Z,689.5
2023-10-29T16:09:10.674Z,659.1
2023-10-29T16:10:54.381Z,942.8
2023-10-29T16:12:38.074Z,896.2
2023-10-29T16:14:21.785Z,819.2
2023-10-29T16:16:05.507Z,800.5
2023-10-29T16:17:49.192Z,805.8
2023-10-29T16:19:32.955Z,823.5
2023-10-29T16:21:16.681Z,840.1
2023-10-29T16:23:00.315Z,871.7
2023-10-29T16:24:44.018Z,931.8
2023-10-29T16:26:27.722Z,927.7
2023-10-29T16:28:11.427Z,934.8
2023-10-29T16:29:55.105Z,971.7
2023-10-29T16:31:38.810Z,942
2023-10-29T16:33:22.578Z,882.8
2023-10-29T16:35:06.218Z,894.4
2023-10-29T16:36:49.970Z,955
2023-10-29T16:38:33.629Z,975.4
2023-10-29T16:40:17.333Z,960.7
2023-10-29T16:42:01.022Z,958.2
2023-10-29T16:43:44.759Z,963.6
2023-10-29T16:45:28.445Z,971.3
2023-10-29T16:47:12.145Z,1013
2023-10-29T16:48:55.844Z,1040.8
2023-10-29T16:50:39.540Z,1050.9
2023-10-29T16:52:23.249Z,1067.2
2023-10-29T16:54:06.968Z,1077.5
2023-10-29T16:55:50.660Z,1085.3
2023-10-29T16:57:34.533Z,1089.9
2023-10-29T16:59:18.178Z,1089.5
2023-10-29T17:01:01.809Z,1088
2023-10-29T17:02:45.465Z,1094.8
2023-10-29T17:04:29.162Z,1099.7
2023-10-29T17:06:12.878Z,1104.1
2023-10-29T17:07:56.643Z,1105.3
2023-10-29T17:09:40.301Z,1111.1
2023-10-29T17:11:24.015Z,1114.4
2023-10-29T17:13:07.686Z,1106.9
2023-10-29T17:14:51.397Z,1102.2
2023-10-29T17:16:35.085Z,1096.5
2023-10-29T17:18:18.795Z,1094.5
2023-10-29T17:20:02.524Z,1100.6
2023-10-29T17:21:46.207Z,1181.8
2023-10-29T17:23:29.914Z,1196.1
2023-10-29T17:25:13.632Z,1200.2
2023-10-29T17:26:57.325Z,1208.2
2023-10-29T17:28:41.030Z,1210
2023-10-29T17:30:24.761Z,1207.5
2023-10-29T17:32:08.420Z,1213.1
2023-10-29T17:33:52.161Z,1223.8
2023-10-29T17:35:35.846Z,1219.1
2023-10-29T17:37:19.587Z,1218.8
2023-10-29T17:39:03.304Z,1216.9
2023-10-29T17:40:46.951Z,1213.5
2023-10-29T17:42:30.687Z,1212.4
2023-10-29T17:44:14.367Z,1209
2023-10-29T17:45:58.047Z,1204.3
2023-10-29T17:47:41.754Z,1206.8
2023-10-29T17:49:25.463Z,1211
2023-10-29T17:51:09.169Z,1211.7
2023-10-29T17:52:52.860Z,1211
2023-10-29T17:54:36.564Z,1207.7
2023-10-29T17:56:20.282Z,1205.7
2023-10-29T17:58:03.978Z,1209.2
2023-10-29T17:59:47.676Z,1217.2
2023-10-29T18:01:31.381Z,1214.2
2023-10-29T18:03:15.082Z,1203.9
2023-10-29T18:04:58.820Z,1192.9
2023-10-29T18:06:42.488Z,1184.8
2023-10-29T18:08:26.199Z,1178.5
2023-10-29T18:10:09.912Z,1178.3
2023-10-29T18:11:53.620Z,1176
2023-10-29T18:13:37.318Z,1176.2
2023-10-29T18:15:21.026Z,1178.8
2023-10-29T18:17:04.728Z,1180.4
2023-10-29T18:18:48.448Z,1183.7
2023-10-29T18:20:32.125Z,1187.9
2023-10-29T18:22:15.838Z,1195.5
2023-10-29T18:23:59.535Z,1203.3
2023-10-29T18:25:43.256Z,1212.8
2023-10-29T18:27:26.946Z,1222.9
2023-10-29T18:29:10.641Z,1226.1
2023-10-29T18:30:54.360Z,1227
2023-10-29T18:32:38.071Z,1232.3
2023-10-29T18:34:21.767Z,1237.2
2023-10-29T18:36:05.464Z,1238.7
2023-10-29T18:37:49.174Z,1235.9
2023-10-29T18:39:32.866Z,1236.3
2023-10-29T18:41:16.606Z,1235.5
2023-10-29T18:43:00.287Z,1237.2
2023-10-29T18:44:43.993Z,1236.8
2023-10-29T18:46:27.702Z,1236.8
2023-10-29T18:48:11.395Z,1240.8
2023-10-29T18:49:55.109Z,1242.4
2023-10-29T18:51:38.815Z,1246.4
2023-10-29T18:53:22.517Z,1249.7
2023-10-29T18:55:06.205Z,1254.6
2023-10-29T18:56:49.919Z,1258.8
2023-10-29T18:58:33.628Z,1262.9
2023-10-29T19:00:17.333Z,1270.8
2023-10-29T19:02:01.012Z,1280.8
2023-10-29T19:03:44.729Z,1288.3
2023-10-29T19:05:28.428Z,1294.6
2023-10-29T19:07:12.134Z,1300.3
2023-10-29T19:08:55.833Z,1304.5
2023-10-29T19:10:39.553Z,1312.1
2023-10-29T19:12:23.250Z,1314.5
2023-10-29T19:14:06.955Z,1320.8
2023-10-29T19:15:50.640Z,1326.1
2023-10-29T19:17:34.367Z,1327.5
2023-10-29T19:19:18.144Z,1330.4
2023-10-29T19:21:01.761Z,1333.5
2023-10-29T19:22:45.455Z,1340
2023-10-29T19:24:29.155Z,1344.8
2023-10-29T19:26:12.854Z,1349.8
2023-10-29T19:27:56.568Z,1355.1
2023-10-29T19:29:40.251Z,1356.4
2023-10-29T19:31:23.958Z,1357.2
2023-10-29T19:33:07.677Z,1359.7
2023-10-29T19:34:51.602Z,1359.5
2023-10-29T19:36:35.097Z,1363.9
2023-10-29T19:38:18.834Z,1364.5
2023-10-29T19:40:02.479Z,1366.7
2023-10-29T19:41:46.193Z,1370.5
2023-10-29T19:43:29.878Z,1372.4
2023-10-29T19:45:13.594Z,1368.5
2023-10-29T19:46:57.476Z,1367.8
2023-10-29T19:48:41.045Z,1369.8
2023-10-29T19:50:24.698Z,1373
2023-10-29T19:52:08.411Z,1376.8
2023-10-29T19:53:52.117Z,1379.3
2023-10-29T19:55:35.822Z,1377.8
2023-10-29T19:57:19.528Z,1379.1
2023-10-29T19:59:03.219Z,1381.7
2023-10-29T20:00:46.935Z,1385
2023-10-29T20:02:30.636Z,1381.9
2023-10-29T20:04:14.342Z,1380.6
2023-10-29T20:05:58.030Z,1376.4
2023-10-29T20:07:41.731Z,1371.5
2023-10-29T20:09:25.439Z,1368.6
2023-10-29T20:11:09.163Z,1363.1
2023-10-29T20:12:52.854Z,1361.7
2023-10-29T20:14:36.542Z,1367.8
2023-10-29T20:16:20.286Z,1372.3
2023-10-29T20:18:03.961Z,1374.2
2023-10-29T20:19:47.632Z,1379.2
2023-10-29T20:21:31.357Z,1382.9
2023-10-29T20:23:15.056Z,1388
2023-10-29T20:24:58.758Z,1395.1
2023-10-29T20:26:42.566Z,1401.1
2023-10-29T20:28:26.168Z,1402.8
2023-10-29T20:30:09.854Z,1404.2
2023-10-29T20:31:53.610Z,1404.7
2023-10-29T20:33:37.259Z,1409
2023-10-29T20:35:20.962Z,1411.8
2023-10-29T20:38:48.378Z,1411.3
2023-10-29T20:40:32.093Z,1409.3
2023-10-29T20:42:15.793Z,1407.3
2023-10-29T20:43:59.478Z,1408.6
2023-10-29T20:45:43.169Z,1410.1
2023-10-29T20:47:26.891Z,1411.1
2023-10-29T20:49:10.583Z,1411.9
2023-10-29T20:50:54.315Z,1415.6
2023-10-29T20:52:38.111Z,1420.7
2023-10-29T20:54:21.697Z,1431.5
2023-10-29T20:56:05.400Z,1440.6
2023-10-29T20:57:49.160Z,1450.7
2023-10-29T20:59:32.828Z,1453.9
2023-10-29T21:01:16.589Z,1457.1
2023-10-29T21:03:00.216Z,1460.6
2023-10-29T21:04:43.894Z,1465.5
2023-10-29T21:06:27.710Z,1470.9
2023-10-29T21:08:11.340Z,1471.5
2023-10-29T21:09:54.999Z,1477.4
2023-10-29T21:11:38.726Z,1479.3
2023-10-29T21:13:22.426Z,1479.4
2023-10-29T21:15:06.116Z,1476.7
2023-10-29T21:16:49.815Z,1483.1
2023-10-29T21:18:33.536Z,1489
2023-10-29T21:20:17.225Z,1490.1
2023-10-29T21:22:00.938Z,1489.5
2023-10-29T21:23:44.634Z,1487.1
2023-10-29T21:25:28.323Z,1487.8
2023-10-29T21:27:12.056Z,1489.2
2023-10-29T21:28:55.751Z,1490.5
2023-10-29T21:30:39.439Z,1491.4
2023-10-29T21:32:23.148Z,1493.3
2023-10-29T21:34:06.848Z,1493
2023-10-29T21:35:50.560Z,1492.4
2023-10-29T21:37:34.264Z,1495.6
2023-10-29T21:39:17.965Z,1495.3
2023-10-29T21:41:01.684Z,1500
2023-10-29T21:42:45.363Z,1501.2
2023-10-29T21:44:29.053Z,1498.8
2023-10-29T21:46:12.780Z,1498.1
2023-10-29T21:47:56.480Z,1499.3
2023-10-29T21:49:40.173Z,1497.9
2023-10-29T21:51:23.859Z,1499
2023-10-29T21:53:07.575Z,1500.6
2023-10-29T21:54:51.277Z,1499.3
2023-10-29T21:56:34.990Z,1494.9
2023-10-29T21:58:18.676Z,1497.6
2023-10-29T22:00:02.374Z,1496.5
2023-10-29T22:01:46.086Z,1496.2
2023-10-29T22:03:29.783Z,1493
2023-10-29T22:05:13.484Z,1491.5
2023-10-29T22:06:57.194Z,1495.7
2023-10-29T22:08:40.905Z,1494.5
2023-10-29T22:10:24.631Z,1496.1
2023-10-29T22:12:08.301Z,1500.1
2023-10-29T22:13:51.995Z,1505.5
2023-10-29T22:15:35.709Z,1503
2023-10-29T22:17:19.405Z,1500.5